Time,TemperatureF,DewpointF,PressureIn,WindDirection,WindDirectionDegrees,WindSpeedMPH,WindSpeedGustMPH,Humidity,HourlyPrecipIn,Conditions,Clouds,dailyrainin,SolarRadiationWatts/m^2,SoftwareType,DateUTC
2013-02-10 00:01:00,16.0,14.0,-100.00,West,271,2.0,6.0,90,0.00,,,0.00,0.000000,,2013-02-10 07:01:00,
2013-02-10 00:11:00,16.0,14.0,-100.00,West,271,2.0,6.0,90,0.00,,,0.00,0.000000,,2013-02-10 07:11:00,
2013-02-10 00:42:00,16.0,14.0,-100.00,SW,226,2.0,6.0,90,0.00,,,0.00,0.000000,,2013-02-10 07:42:00,
2013-02-10 00:52:00,16.0,14.0,-100.00,SW,226,2.0,6.0,90,0.00,,,0.00,0.000000,,2013-02-10 07:52:00,
2013-02-10 01:01:00,16.0,14.0,-100.00,SW,226,2.0,6.0,90,0.00,,,0.00,0.000000,,2013-02-10 08:01:00,
2013-02-10 01:11:00,16.0,14.0,-100.00,SW,226,2.0,6.0,90,0.00,,,0.00,0.000000,,2013-02-10 08:11:00,
2013-02-10 01:43:00,15.0,12.0,-100.00,WSW,244,1.0,5.0,89,0.00,,,0.00,0.000000,,2013-02-10 08:43:00,
2013-02-10 01:52:00,15.0,12.0,-100.00,WSW,244,1.0,5.0,89,0.00,,,0.00,0.000000,,2013-02-10 08:52:00,
2013-02-10 02:02:00,15.0,12.0,-100.00,WSW,244,1.0,5.0,89,0.00,,,0.00,0.000000,,2013-02-10 09:02:00,
2013-02-10 02:11:00,15.0,12.0,-100.00,WSW,244,1.0,5.0,89,0.00,,,0.00,0.000000,,2013-02-10 09:11:00,
2013-02-10 02:32:00,15.0,13.0,-100.00,North,1,2.0,5.0,90,0.00,,,0.00,0.000000,,2013-02-10 09:32:00,
2013-02-10 02:42:00,15.0,13.0,-100.00,North,1,2.0,5.0,90,0.00,,,0.00,0.000000,,2013-02-10 09:42:00,
2013-02-10 02:52:00,15.0,13.0,-100.00,North,1,2.0,5.0,90,0.00,,,0.00,0.000000,,2013-02-10 09:52:00,
2013-02-10 03:01:00,15.0,13.0,-100.00,North,1,2.0,5.0,90,0.00,,,0.00,0.000000,,2013-02-10 10:01:00,
2013-02-10 03:11:00,15.0,13.0,-100.00,North,1,2.0,5.0,90,0.00,,,0.00,0.000000,,2013-02-10 10:11:00,
2013-02-10 03:42:00,15.0,12.0,-100.00,NNW,332,3.0,5.0,89,0.00,,,0.00,0.000000,,2013-02-10 10:42:00,
2013-02-10 03:52:00,15.0,12.0,-100.00,NNW,332,3.0,5.0,89,0.00,,,0.00,0.000000,,2013-02-10 10:52:00,
2013-02-10 04:01:00,15.0,12.0,-100.00,NNW,332,3.0,5.0,89,0.00,,,0.00,0.000000,,2013-02-10 11:01:00,
2013-02-10 04:11:00,15.0,12.0,-100.00,NNW,332,3.0,5.0,89,0.00,,,0.00,0.000000,,2013-02-10 11:11:00,
2013-02-10 04:32:00,15.0,12.0,-100.00,NNW,343,2.0,4.0,87,0.00,,,0.00,0.000000,,2013-02-10 11:32:00,
2013-02-10 04:42:00,15.0,12.0,-100.00,NNW,343,2.0,4.0,87,0.00,,,0.00,0.000000,,2013-02-10 11:42:00,
2013-02-10 04:52:00,15.0,12.0,-100.00,NNW,343,2.0,4.0,87,0.00,,,0.00,0.000000,,2013-02-10 11:52:00,
2013-02-10 05:01:00,15.0,12.0,-100.00,NNW,343,2.0,4.0,87,0.00,,,0.00,0.000000,,2013-02-10 12:01:00,
2013-02-10 05:12:00,15.0,12.0,-100.00,NNW,343,2.0,4.0,87,0.00,,,0.00,0.000000,,2013-02-10 12:12:00,
2013-02-10 08:32:00,12.0,9.0,-100.00,NNE,33,1.0,4.0,89,-99.99,,,0.00,0.000000,,2013-02-10 15:32:00,
2013-02-10 08:42:00,12.0,9.0,-100.00,NNE,33,1.0,4.0,89,-99.99,,,0.00,0.000000,,2013-02-10 15:42:00,
2013-02-10 08:52:00,12.0,9.0,-100.00,NNE,33,1.0,4.0,89,-99.99,,,0.00,0.000000,,2013-02-10 15:52:00,
2013-02-10 09:01:00,12.0,9.0,-100.00,NNE,33,1.0,4.0,89,-99.99,,,0.00,0.000000,,2013-02-10 16:01:00,
2013-02-10 09:11:00,12.0,9.0,-100.00,NNE,33,1.0,4.0,89,-99.99,,,0.00,0.000000,,2013-02-10 16:11:00,
2013-02-10 09:32:00,13.0,10.0,-100.00,South,181,1.0,4.0,88,0.00,,,0.00,1.000000,,2013-02-10 16:32:00,
2013-02-10 09:42:00,13.0,10.0,-100.00,South,181,1.0,4.0,88,0.00,,,0.00,1.000000,,2013-02-10 16:42:00,
2013-02-10 09:52:00,13.0,10.0,-100.00,South,181,1.0,4.0,88,0.00,,,0.00,1.000000,,2013-02-10 16:52:00,
2013-02-10 10:01:00,13.0,10.0,-100.00,South,181,1.0,4.0,88,0.00,,,0.00,1.000000,,2013-02-10 17:01:00,
2013-02-10 10:11:00,13.0,10.0,-100.00,South,181,1.0,4.0,88,0.00,,,0.00,1.000000,,2013-02-10 17:11:00,
2013-02-10 10:32:00,15.0,12.0,-100.00,South,181,0.0,2.0,88,0.00,,,0.00,12.000000,,2013-02-10 17:32:00,
2013-02-10 10:42:00,15.0,12.0,-100.00,South,181,0.0,2.0,88,0.00,,,0.00,12.000000,,2013-02-10 17:42:00,
2013-02-10 10:52:00,15.0,12.0,-100.00,South,181,0.0,2.0,88,0.00,,,0.00,12.000000,,2013-02-10 17:52:00,
2013-02-10 11:01:00,15.0,12.0,-100.00,South,181,0.0,2.0,88,0.00,,,0.00,12.000000,,2013-02-10 18:01:00,
2013-02-10 11:11:00,15.0,12.0,-100.00,South,181,0.0,2.0,88,0.00,,,0.00,12.000000,,2013-02-10 18:11:00,
2013-02-10 11:42:00,22.0,16.0,-100.00,SSW,212,1.0,4.0,79,0.00,,,0.00,65.000000,,2013-02-10 18:42:00,
2013-02-10 11:52:00,22.0,16.0,-100.00,SSW,212,1.0,4.0,79,0.00,,,0.00,65.000000,,2013-02-10 18:52:00,
2013-02-10 12:01:00,22.0,16.0,-100.00,SSW,212,1.0,4.0,79,0.00,,,0.00,65.000000,,2013-02-10 19:01:00,
2013-02-10 12:11:00,22.0,16.0,-100.00,SSW,212,1.0,4.0,79,0.00,,,0.00,65.000000,,2013-02-10 19:11:00,
2013-02-10 12:32:00,21.0,17.0,-100.00,SW,229,2.0,5.0,83,0.00,,,0.00,61.000000,,2013-02-10 19:32:00,
2013-02-10 12:43:00,21.0,17.0,-100.00,SW,229,2.0,5.0,83,0.00,,,0.00,61.000000,,2013-02-10 19:43:00,
2013-02-10 12:52:00,21.0,17.0,-100.00,SW,229,2.0,5.0,83,0.00,,,0.00,61.000000,,2013-02-10 19:52:00,
2013-02-10 13:01:00,21.0,17.0,-100.00,SW,229,2.0,5.0,83,0.00,,,0.00,61.000000,,2013-02-10 20:01:00,
2013-02-10 13:11:00,21.0,17.0,-100.00,SW,229,2.0,5.0,83,0.00,,,0.00,61.000000,,2013-02-10 20:11:00,
2013-02-10 13:42:00,23.0,18.0,-100.00,SW,229,1.0,4.0,80,0.00,,,0.00,58.000000,,2013-02-10 20:42:00,
2013-02-10 13:52:00,23.0,18.0,-100.00,SW,229,1.0,4.0,80,0.00,,,0.00,58.000000,,2013-02-10 20:52:00,
2013-02-10 14:02:00,23.0,18.0,-100.00,SW,229,1.0,4.0,80,0.00,,,0.00,58.000000,,2013-02-10 21:02:00,
2013-02-10 14:11:00,23.0,18.0,-100.00,SW,229,1.0,4.0,80,0.00,,,0.00,58.000000,,2013-02-10 21:11:00,
2013-02-10 14:32:00,24.0,18.0,-100.00,SW,223,1.0,5.0,78,0.01,,,0.01,55.000000,,2013-02-10 21:32:00,
2013-02-10 14:42:00,24.0,18.0,-100.00,SW,223,1.0,5.0,78,0.01,,,0.01,55.000000,,2013-02-10 21:42:00,
2013-02-10 14:52:00,24.0,18.0,-100.00,SW,223,1.0,5.0,78,0.01,,,0.01,55.000000,,2013-02-10 21:52:00,
2013-02-10 15:01:00,24.0,18.0,-100.00,SW,223,1.0,5.0,78,0.01,,,0.01,55.000000,,2013-02-10 22:01:00,
2013-02-10 15:11:00,24.0,18.0,-100.00,SW,223,1.0,5.0,78,0.01,,,0.01,55.000000,,2013-02-10 22:11:00,
2013-02-10 15:42:00,30.0,21.0,-100.00,WSW,241,1.0,5.0,68,0.03,,,0.04,71.000000,,2013-02-10 22:42:00,
2013-02-10 15:52:00,30.0,21.0,-100.00,WSW,241,1.0,5.0,68,0.03,,,0.04,71.000000,,2013-02-10 22:52:00,
2013-02-10 16:01:00,30.0,21.0,-100.00,WSW,241,1.0,5.0,68,0.03,,,0.04,71.000000,,2013-02-10 23:01:00,
2013-02-10 16:32:00,21.0,16.0,-100.00,South,169,2.0,4.0,79,-99.99,,,0.09,35.000000,,2013-02-10 23:32:00,
2013-02-10 16:42:00,21.0,16.0,-100.00,South,169,2.0,4.0,79,-99.99,,,0.09,35.000000,,2013-02-10 23:42:00,
2013-02-10 16:52:00,21.0,16.0,-100.00,South,169,2.0,4.0,79,-99.99,,,0.09,35.000000,,2013-02-10 23:52:00,
2013-02-10 17:01:00,21.0,16.0,-100.00,South,169,2.0,4.0,79,-99.99,,,0.09,35.000000,,2013-02-11 00:01:00,
2013-02-10 17:11:00,21.0,16.0,-100.00,South,169,2.0,4.0,79,-99.99,,,0.09,35.000000,,2013-02-11 00:11:00,
2013-02-10 17:42:00,29.0,19.0,-100.00,SW,217,1.0,7.0,66,0.01,,,0.10,59.000000,,2013-02-11 00:42:00,
2013-02-10 17:52:00,29.0,19.0,-100.00,SW,217,1.0,7.0,66,0.01,,,0.10,59.000000,,2013-02-11 00:52:00,
2013-02-10 18:01:00,29.0,19.0,-100.00,SW,217,1.0,7.0,66,0.01,,,0.10,59.000000,,2013-02-11 01:01:00,
2013-02-10 19:42:00,15.0,11.0,-100.00,NNE,24,1.0,6.0,83,-99.99,,,0.10,7.000000,,2013-02-11 02:42:00,
2013-02-10 19:52:00,15.0,11.0,-100.00,NNE,24,1.0,6.0,83,-99.99,,,0.10,7.000000,,2013-02-11 02:52:00,
2013-02-10 20:01:00,15.0,11.0,-100.00,NNE,24,1.0,6.0,83,-99.99,,,0.10,7.000000,,2013-02-11 03:01:00,
2013-02-10 20:11:00,15.0,11.0,-100.00,NNE,24,1.0,6.0,83,-99.99,,,0.10,7.000000,,2013-02-11 03:11:00,
2013-02-10 20:32:00,13.0,9.0,-100.00,SSW,200,2.0,4.0,83,0.00,,,0.10,0.000000,,2013-02-11 03:32:00,
2013-02-10 20:42:00,13.0,9.0,-100.00,SSW,200,2.0,4.0,83,0.00,,,0.10,0.000000,,2013-02-11 03:42:00,
2013-02-10 20:52:00,13.0,9.0,-100.00,SSW,200,2.0,4.0,83,0.00,,,0.10,0.000000,,2013-02-11 03:52:00,
2013-02-10 21:01:00,13.0,9.0,-100.00,SSW,200,2.0,4.0,83,0.00,,,0.10,0.000000,,2013-02-11 04:01:00,
2013-02-10 21:11:00,13.0,9.0,-100.00,SSW,200,2.0,4.0,83,0.00,,,0.10,0.000000,,2013-02-11 04:11:00,
2013-02-10 21:32:00,13.0,10.0,-100.00,North,352,3.0,4.0,87,0.00,,,0.10,0.000000,,2013-02-11 04:32:00,
2013-02-10 21:42:00,13.0,10.0,-100.00,North,352,3.0,4.0,87,0.00,,,0.10,0.000000,,2013-02-11 04:42:00,
2013-02-10 21:52:00,13.0,10.0,-100.00,North,352,3.0,4.0,87,0.00,,,0.10,0.000000,,2013-02-11 04:52:00,
2013-02-10 22:01:00,13.0,10.0,-100.00,North,352,3.0,4.0,87,0.00,,,0.10,0.000000,,2013-02-11 05:01:00,
2013-02-10 22:11:00,13.0,10.0,-100.00,North,352,3.0,4.0,87,0.00,,,0.10,0.000000,,2013-02-11 05:11:00,
2013-02-10 22:42:00,14.0,11.0,-100.00,NNW,336,2.0,3.0,86,0.00,,,0.10,0.000000,,2013-02-11 05:42:00,
2013-02-10 22:52:00,14.0,11.0,-100.00,NNW,336,2.0,3.0,86,0.00,,,0.10,0.000000,,2013-02-11 05:52:00,
2013-02-10 23:01:00,14.0,11.0,-100.00,NNW,336,2.0,3.0,86,0.00,,,0.10,0.000000,,2013-02-11 06:01:00,
2013-02-10 23:11:00,14.0,11.0,-100.00,NNW,336,2.0,3.0,86,0.00,,,0.10,0.000000,,2013-02-11 06:11:00,
2013-02-10 23:42:00,13.0,9.0,-100.00,North,353,1.0,2.0,85,0.00,,,0.10,0.000000,,2013-02-11 06:42:00,
2013-02-10 23:52:00,13.0,9.0,-100.00,North,353,1.0,2.0,85,0.00,,,0.10,0.000000,,2013-02-11 06:52:00,